createdAt,value
2018-02-17T00:02:15.525Z,100455.40
2018-02-17T00:08:20.435Z,100442.14
2018-02-17T00:14:25.019Z,100444.99
2018-02-17T00:20:29.579Z,100431.34
2018-02-17T00:26:34.101Z,100426.77
2018-02-17T00:32:38.643Z,100430.16
2018-02-17T00:38:43.155Z,100433.11
2018-02-17T00:44:47.646Z,100436.02
2018-02-17T00:50:52.376Z,100450.78
2018-02-17T00:56:56.862Z,100450.33
2018-02-17T01:03:01.356Z,100435.12
2018-02-17T01:09:05.875Z,100436.63
2018-02-17T01:15:10.403Z,100435.90
2018-02-17T01:21:14.994Z,100437.25
2018-02-17T01:27:20.020Z,100437.14
2018-02-17T01:33:25.195Z,100437.39
2018-02-17T01:39:29.692Z,100431.50
2018-02-17T01:45:35.687Z,100423.42
2018-02-17T01:51:40.219Z,100420.66
2018-02-17T01:57:45.638Z,100405.28
2018-02-17T02:03:50.202Z,100410.22
2018-02-17T02:09:54.800Z,100399.63
2018-02-17T02:15:59.317Z,100408.50
2018-02-17T02:22:03.811Z,100398.14
2018-02-17T02:28:08.333Z,100387.35
2018-02-17T02:34:13.176Z,100374.80
2018-02-17T02:40:17.774Z,100366.89
2018-02-17T02:46:22.692Z,100373.98
2018-02-17T02:52:27.359Z,100372.94
2018-02-17T02:58:31.890Z,100368.04
2018-02-17T03:04:36.540Z,100358.12
2018-02-17T03:10:41.032Z,100349.73
2018-02-17T03:16:45.529Z,100352.91
2018-02-17T03:22:50.300Z,100353.27
2018-02-17T03:28:55.656Z,100360.08
2018-02-17T03:35:00.303Z,100346.80
2018-02-17T03:41:04.787Z,100349.85
2018-02-17T03:47:09.353Z,100352.98
2018-02-17T03:53:13.854Z,100353.21
2018-02-17T03:59:19.177Z,100348.44
2018-02-17T04:05:24.103Z,100360.65
2018-02-17T04:11:28.627Z,100355.75
2018-02-17T04:17:33.961Z,100350.95
2018-02-17T04:23:38.694Z,100359.58
2018-02-17T04:29:43.234Z,100358.56
2018-02-17T04:35:47.882Z,100353.67
2018-02-17T04:41:58.731Z,100342.52
2018-02-17T04:48:08.866Z,100332.96
2018-02-17T04:54:19.047Z,100323.56
2018-02-17T05:00:23.945Z,100322.27
2018-02-17T05:06:41.218Z,100306.23
2018-02-17T05:12:46.731Z,100287.16
2018-02-17T05:19:01.283Z,100298.76
2018-02-17T05:25:10.667Z,100283.45
2018-02-17T05:31:16.176Z,100273.59
2018-02-17T05:37:21.743Z,100274.98
2018-02-17T05:43:26.396Z,100264.14
2018-02-17T05:49:32.404Z,100275.02
2018-02-17T05:55:37.304Z,100275.97
2018-02-17T06:01:42.205Z,100266.00
2018-02-17T06:07:46.810Z,100255.59
2018-02-17T06:13:52.595Z,100257.22
2018-02-17T06:19:57.318Z,100244.34
2018-02-17T06:26:02.220Z,100247.99
2018-02-17T06:32:06.751Z,100246.14
2018-02-17T06:38:11.430Z,100240.16
2018-02-17T06:44:15.907Z,100231.66
2018-02-17T06:50:20.492Z,100238.91
2018-02-17T06:56:25.192Z,100243.10
2018-02-17T07:02:30.511Z,100242.38
2018-02-17T07:08:35.023Z,100247.55
2018-02-17T07:14:39.523Z,100247.59
2018-02-17T07:20:44.787Z,100237.63
2018-02-17T07:26:49.642Z,100223.24
2018-02-17T07:32:54.242Z,100214.63
2018-02-17T07:38:59.551Z,100193.55
2018-02-17T07:45:04.125Z,100192.70
2018-02-17T07:51:08.657Z,100186.41
2018-02-17T07:57:13.886Z,100192.44
2018-02-17T08:03:18.404Z,100179.31
2018-02-17T08:09:23.940Z,100168.64
2018-02-17T08:15:28.588Z,100160.13
2018-02-17T08:21:33.140Z,100148.23
2018-02-17T08:27:37.675Z,100147.73
2018-02-17T08:33:42.910Z,100151.70
2018-02-17T08:39:47.579Z,100156.12
2018-02-17T08:45:52.100Z,100149.45
2018-02-17T08:51:56.634Z,100147.48
2018-02-17T08:58:01.098Z,100136.53
2018-02-17T09:04:05.667Z,100135.08
2018-02-17T09:10:10.133Z,100136.63
2018-02-17T09:16:15.614Z,100138.20
2018-02-17T09:22:22.090Z,100129.59
2018-02-17T09:28:26.701Z,100142.14
2018-02-17T09:34:31.193Z,100138.02
2018-02-17T09:40:35.862Z,100127.33
2018-02-17T09:46:40.404Z,100133.77
2018-02-17T09:52:44.887Z,100136.39
2018-02-17T09:58:49.724Z,100138.04
2018-02-17T10:04:54.643Z,100138.00
2018-02-17T10:11:00.175Z,100139.75
2018-02-17T10:17:04.897Z,100139.08
2018-02-17T10:23:10.152Z,100138.05
2018-02-17T10:29:14.680Z,100146.90
2018-02-17T10:35:19.680Z,100152.42
2018-02-17T10:41:24.179Z,100154.12
2018-02-17T10:47:28.765Z,100149.20
2018-02-17T10:53:33.249Z,100151.14
2018-02-17T10:59:37.736Z,100148.87
2018-02-17T11:05:42.242Z,100143.92
2018-02-17T11:11:46.700Z,100147.06
2018-02-17T11:17:51.803Z,100143.58
2018-02-17T11:23:56.420Z,100143.84
2018-02-17T11:30:00.921Z,100131.97
2018-02-17T11:36:05.448Z,100127.41
2018-02-17T11:42:10.012Z,100114.02
2018-02-17T11:48:15.301Z,100113.56
2018-02-17T11:54:20.062Z,100107.33
2018-02-17T12:00:24.935Z,100100.89
2018-02-17T12:06:29.428Z,100091.92
2018-02-17T12:12:33.992Z,100094.05
2018-02-17T12:18:38.524Z,100092.55
2018-02-17T12:24:43.124Z,100090.39
2018-02-17T12:30:48.450Z,100085.56
2018-02-17T12:36:53.153Z,100072.80
2018-02-17T12:42:57.827Z,100077.09
2018-02-17T12:49:02.349Z,100074.84
2018-02-17T12:55:07.003Z,100075.98
2018-02-17T13:01:12.329Z,100069.57
2018-02-17T13:07:16.803Z,100062.94
2018-02-17T13:13:21.319Z,100056.14
2018-02-17T13:19:25.796Z,100065.36
2018-02-17T13:25:30.598Z,100067.23
2018-02-17T13:31:35.163Z,100056.13
2018-02-17T13:37:39.691Z,100058.63
2018-02-17T13:43:44.179Z,100059.92
2018-02-17T13:49:48.708Z,100068.31
2018-02-17T13:55:53.468Z,100072.53
2018-02-17T14:01:58.072Z,100074.06
2018-02-17T14:08:02.691Z,100067.70
2018-02-17T14:14:07.167Z,100067.75
2018-02-17T14:20:11.655Z,100069.53
2018-02-17T14:26:16.220Z,100077.02
2018-02-17T14:32:20.834Z,100086.12
2018-02-17T14:38:26.095Z,100087.98
2018-02-17T14:44:30.667Z,100092.52
2018-02-17T14:50:35.196Z,100090.80
2018-02-17T14:56:39.719Z,100094.48
2018-02-17T15:02:44.220Z,100096.94
2018-02-17T15:08:49.843Z,100107.39
2018-02-17T15:14:54.619Z,100109.70
2018-02-17T15:20:59.140Z,100116.99
2018-02-17T15:27:04.368Z,100120.12
2018-02-17T15:33:08.895Z,100118.67
2018-02-17T15:39:13.504Z,100123.22
2018-02-17T15:45:18.014Z,100123.48
2018-02-17T16:04:24.090Z,100133.13
2018-02-17T16:10:28.796Z,100129.95
2018-02-17T16:16:33.318Z,100133.48
2018-02-17T16:22:37.827Z,100127.36
2018-02-17T16:28:42.430Z,100133.00
2018-02-17T16:34:47.832Z,100130.10
2018-02-17T16:40:52.498Z,100136.38
2018-02-17T16:46:57.780Z,100144.02
2018-02-17T16:53:02.354Z,100154.05
2018-02-17T16:59:06.855Z,100156.47
2018-02-17T17:05:11.358Z,100161.93
2018-02-17T17:11:16.161Z,100172.03
2018-02-17T17:17:20.796Z,100174.20
2018-02-17T17:23:25.470Z,100179.77
2018-02-17T17:29:30.181Z,100188.06
2018-02-17T17:35:34.942Z,100202.42
2018-02-17T17:41:39.393Z,100209.10
2018-02-17T17:47:43.916Z,100212.95
2018-02-17T17:53:49.162Z,100215.59
2018-02-17T17:59:53.739Z,100223.42
2018-02-17T18:05:58.218Z,100230.54
2018-02-17T18:12:02.770Z,100236.12
2018-02-17T18:18:08.148Z,100248.76
2018-02-17T18:24:12.680Z,100250.73
2018-02-17T18:30:17.180Z,100252.05
2018-02-17T18:36:22.461Z,100252.70
2018-02-17T18:42:26.951Z,100254.92
2018-02-17T18:48:32.187Z,100263.23
2018-02-17T18:54:36.677Z,100265.45
2018-02-17T19:00:41.149Z,100273.59
2018-02-17T19:06:45.870Z,100276.28
2018-02-17T19:12:50.888Z,100277.47
2018-02-17T19:18:55.404Z,100283.98
2018-02-17T19:25:00.750Z,100289.16
2018-02-17T19:31:05.230Z,100290.41
2018-02-17T19:37:09.709Z,100293.53
2018-02-17T19:43:14.439Z,100302.07
2018-02-17T19:49:19.358Z,100295.69
2018-02-17T19:55:24.163Z,100302.86
2018-02-17T20:01:28.667Z,100306.44
2018-02-17T20:07:33.149Z,100310.25
2018-02-17T20:13:37.716Z,100320.14
2018-02-17T20:19:42.949Z,100321.81
2018-02-17T20:25:47.416Z,100321.33
2018-02-17T20:31:52.743Z,100329.55
2018-02-17T20:37:57.269Z,100336.78
2018-02-17T20:44:01.699Z,100335.66
2018-02-17T20:50:06.265Z,100342.04
2018-02-17T20:56:10.906Z,100339.69
2018-02-17T21:02:15.396Z,100343.04
2018-02-17T21:08:20.199Z,100349.30
2018-02-17T21:14:24.993Z,100359.91
2018-02-17T21:20:29.498Z,100358.59
2018-02-17T21:26:34.001Z,100370.79
2018-02-17T21:32:38.520Z,100375.73
2018-02-17T21:38:43.029Z,100380.55
2018-02-17T21:44:48.418Z,100389.45
2018-02-17T21:50:53.892Z,100386.93
2018-02-17T21:56:58.378Z,100391.00
2018-02-17T22:03:03.086Z,100382.87
2018-02-17T22:09:07.693Z,100389.64
2018-02-17T22:15:12.231Z,100394.05
2018-02-17T22:21:16.728Z,100402.31
2018-02-17T22:27:21.683Z,100405.16
2018-02-17T22:33:26.213Z,100414.70
2018-02-17T22:39:30.682Z,100421.26
2018-02-17T22:45:35.984Z,100430.03
2018-02-17T22:51:41.302Z,100437.64
2018-02-17T22:57:46.642Z,100436.20
2018-02-17T23:03:51.132Z,100440.94
2018-02-17T23:09:55.624Z,100442.73
2018-02-17T23:16:00.267Z,100440.12
2018-02-17T23:22:04.765Z,100448.86
2018-02-17T23:28:10.052Z,100453.12
2018-02-17T23:34:14.569Z,100454.89
2018-02-17T23:40:19.035Z,100450.52
2018-02-17T23:46:24.324Z,100452.35
2018-02-17T23:52:29.600Z,100456.31
2018-02-17T23:58:34.115Z,100458.45
